createdAt,value
2023-04-18T00:00:05.174Z,63.29
2023-04-18T00:01:04.085Z,61.48
2023-04-18T00:02:04.190Z,61.38
2023-04-18T00:03:04.859Z,58.58
2023-04-18T00:04:05.473Z,60.43
2023-04-18T00:05:04.157Z,58.20
2023-04-18T00:06:04.168Z,62.44
2023-04-18T00:07:04.078Z,58.88
2023-04-18T00:08:04.192Z,58.23
2023-04-18T00:09:04.700Z,61.80
2023-04-18T00:10:04.393Z,58.46
2023-04-18T00:11:04.014Z,59.58
2023-04-18T00:12:04.008Z,60.22
2023-04-18T00:13:04.019Z,57.91
2023-04-18T00:14:04.761Z,61.27
2023-04-18T00:15:04.016Z,58.42
2023-04-18T00:16:04.309Z,60.34
2023-04-18T00:17:03.999Z,58.12
2023-04-18T00:18:04.315Z,58.30
2023-04-18T00:19:03.976Z,58.63
2023-04-18T00:20:04.015Z,62.39
2023-04-18T00:21:03.937Z,60.81
2023-04-18T00:22:04.115Z,62.16
2023-04-18T00:23:03.975Z,60.12
2023-04-18T00:24:03.932Z,58.05
2023-04-18T00:25:03.969Z,58.38
2023-04-18T00:26:03.947Z,57.96
2023-04-18T00:27:03.922Z,58.01
2023-04-18T00:28:03.953Z,57.98
2023-04-18T00:29:03.924Z,58.29
2023-04-18T00:30:03.914Z,62.90
2023-04-18T00:31:03.944Z,65.86
2023-04-18T00:32:03.923Z,57.44
2023-04-18T00:33:03.945Z,58.41
2023-04-18T00:34:03.884Z,56.10
2023-04-18T00:35:03.864Z,59.31
2023-04-18T00:36:03.942Z,56.15
2023-04-18T00:37:03.913Z,56.32
2023-04-18T00:38:03.858Z,57.28
2023-04-18T00:39:03.822Z,56.94
2023-04-18T00:40:03.847Z,56.42
2023-04-18T00:41:36.421Z,57.30
2023-04-18T00:42:04.157Z,57.01
2023-04-18T00:43:36.351Z,60.05
2023-04-18T00:44:36.366Z,57.02
2023-04-18T00:45:03.917Z,56.83
2023-04-18T00:46:37.426Z,61.01
2023-04-18T00:47:37.463Z,57.54
2023-04-18T00:48:36.753Z,60.02
2023-04-18T00:49:36.288Z,57.82
2023-04-18T00:50:04.001Z,57.83
2023-04-18T00:51:03.796Z,57.97
2023-04-18T00:52:03.748Z,59.80
2023-04-18T00:53:03.802Z,57.69
2023-04-18T00:54:03.798Z,57.80
2023-04-18T00:55:03.820Z,58.01
2023-04-18T00:56:03.828Z,59.56
2023-04-18T00:57:03.777Z,63.76
2023-04-18T00:58:03.731Z,57.57
2023-04-18T00:59:03.725Z,57.90
2023-04-18T01:00:03.704Z,57.81
2023-04-18T01:01:03.755Z,61.14
2023-04-18T01:02:03.860Z,57.67
2023-04-18T01:03:03.908Z,59.50
2023-04-18T01:04:03.761Z,57.94
2023-04-18T01:05:04.713Z,62.05
2023-04-18T01:06:03.682Z,59.13
2023-04-18T01:07:03.682Z,59.82
2023-04-18T01:08:03.710Z,58.36
2023-04-18T01:09:03.658Z,61.62
2023-04-18T01:10:03.671Z,60.94
2023-04-18T01:11:03.666Z,57.30
2023-04-18T01:12:03.616Z,57.50
2023-04-18T01:13:03.601Z,57.60
2023-04-18T01:14:03.666Z,57.98
2023-04-18T01:15:03.610Z,60.39
2023-04-18T01:16:03.685Z,57.59
2023-04-18T01:17:03.604Z,57.43
2023-04-18T01:18:03.698Z,57.60
2023-04-18T01:19:03.616Z,57.64
2023-04-18T01:20:03.874Z,60.42
2023-04-18T01:21:03.557Z,63.25
2023-04-18T01:22:03.593Z,58.99
2023-04-18T01:23:03.549Z,58.45
2023-04-18T01:24:03.561Z,61.56
2023-04-18T01:25:03.555Z,62.60
2023-04-18T01:26:03.563Z,57.91
2023-04-18T01:27:03.524Z,57.83
2023-04-18T01:28:03.535Z,57.70
2023-04-18T01:29:03.532Z,60.39
2023-04-18T01:30:03.497Z,58.34
2023-04-18T01:31:03.590Z,57.95
2023-04-18T01:32:03.542Z,58.21
2023-04-18T01:33:03.561Z,58.51
2023-04-18T01:34:03.507Z,58.51
2023-04-18T01:35:03.503Z,58.27
2023-04-18T01:36:03.511Z,58.33
2023-04-18T01:37:03.478Z,60.62
2023-04-18T01:38:03.510Z,58.54
2023-04-18T01:39:03.522Z,58.64
2023-04-18T01:40:03.453Z,58.67
2023-04-18T01:41:03.477Z,58.69
2023-04-18T01:42:03.492Z,58.52
2023-04-18T01:43:03.456Z,58.78
2023-04-18T01:44:03.433Z,58.89
2023-04-18T01:45:03.445Z,58.85
2023-04-18T01:46:03.528Z,60.58
2023-04-18T01:47:03.455Z,59.35
2023-04-18T01:48:03.455Z,59.84
2023-04-18T01:49:03.454Z,58.82
2023-04-18T01:50:03.407Z,59.07
2023-04-18T01:51:03.401Z,59.00
2023-04-18T01:52:04.363Z,62.62
2023-04-18T01:53:03.376Z,68.25
2023-04-18T01:54:03.367Z,59.28
2023-04-18T01:55:03.345Z,58.82
2023-04-18T01:56:03.394Z,66.42
2023-04-18T01:57:03.359Z,59.09
2023-04-18T01:58:03.351Z,59.39
2023-04-18T01:59:03.365Z,64.40
2023-04-18T02:00:03.353Z,58.89
2023-04-18T02:01:04.331Z,63.62
2023-04-18T02:02:03.466Z,59.36
2023-04-18T02:03:03.398Z,58.93
2023-04-18T02:04:03.546Z,58.64
2023-04-18T02:05:03.299Z,61.19
2023-04-18T02:06:03.291Z,58.50
2023-04-18T02:07:03.324Z,62.09
2023-04-18T02:08:03.277Z,62.12
2023-04-18T02:09:03.297Z,58.39
2023-04-18T02:10:03.304Z,58.51
2023-04-18T02:11:03.253Z,61.13
2023-04-18T02:12:03.284Z,60.26
2023-04-18T02:13:03.265Z,58.60
2023-04-18T02:14:03.263Z,62.07
2023-04-18T02:15:03.278Z,59.04
2023-04-18T02:16:03.361Z,58.67
2023-04-18T02:17:03.215Z,58.51
2023-04-18T02:18:03.264Z,58.53
2023-04-18T02:19:03.267Z,60.73
2023-04-18T02:20:03.206Z,58.73
2023-04-18T02:21:03.196Z,58.50
2023-04-18T02:22:03.267Z,58.52
2023-04-18T02:23:03.209Z,58.65
2023-04-18T02:24:03.222Z,58.57
2023-04-18T02:25:03.163Z,63.32
2023-04-18T02:26:03.145Z,58.99
2023-04-18T02:27:03.179Z,63.35
2023-04-18T02:28:03.168Z,62.98
2023-04-18T02:29:03.219Z,57.99
2023-04-18T02:30:03.164Z,63.50
2023-04-18T02:31:03.124Z,58.05
2023-04-18T02:32:03.231Z,63.24
2023-04-18T02:33:03.142Z,57.97
2023-04-18T02:34:03.139Z,64.73
2023-04-18T02:35:03.111Z,66.19
2023-04-18T02:36:03.099Z,57.87
2023-04-18T02:37:03.130Z,62.91
2023-04-18T02:38:03.143Z,62.58
2023-04-18T02:39:03.068Z,60.45
2023-04-18T02:40:03.083Z,56.02
2023-04-18T02:41:03.062Z,56.58
2023-04-18T02:42:03.101Z,68.72
2023-04-18T02:43:03.043Z,63.23
2023-04-18T02:44:03.050Z,61.75
2023-04-18T02:45:03.034Z,62.66
2023-04-18T02:46:03.099Z,55.91
2023-04-18T02:47:03.023Z,64.83
2023-04-18T02:48:03.033Z,56.28
2023-04-18T02:49:03.017Z,56.10
2023-04-18T02:50:02.999Z,62.79
2023-04-18T02:51:03.025Z,64.92
2023-04-18T02:52:03.020Z,59.83
2023-04-18T02:53:03.031Z,62.07
2023-04-18T02:54:03.007Z,60.78
2023-04-18T02:55:02.996Z,63.74
2023-04-18T02:56:02.966Z,59.85
2023-04-18T02:57:02.964Z,56.13
2023-04-18T02:58:02.948Z,66.02
2023-04-18T02:59:02.970Z,67.43
2023-04-18T03:00:02.981Z,65.49
2023-04-18T03:01:02.973Z,56.25
2023-04-18T03:02:02.917Z,65.09
2023-04-18T03:03:03.013Z,60.10
2023-04-18T03:04:02.924Z,61.00
2023-04-18T03:05:02.984Z,64.95
2023-04-18T03:06:02.878Z,64.94
2023-04-18T03:07:02.882Z,61.48
2023-04-18T03:08:02.908Z,67.08
2023-04-18T03:09:02.881Z,65.41
2023-04-18T03:10:02.966Z,63.85
2023-04-18T03:11:02.869Z,64.11
2023-04-18T03:12:02.841Z,66.78
2023-04-18T03:13:02.863Z,61.40
2023-04-18T03:14:02.849Z,65.25
2023-04-18T03:15:02.859Z,65.23
2023-04-18T03:16:02.895Z,64.34
2023-04-18T03:17:02.852Z,70.71
2023-04-18T03:18:02.937Z,65.88
2023-04-18T03:19:02.787Z,66.37
2023-04-18T03:20:02.788Z,67.05
2023-04-18T03:21:03.739Z,63.33
2023-04-18T03:22:02.774Z,62.27
2023-04-18T03:23:02.849Z,63.30
2023-04-18T03:24:02.778Z,58.02
2023-04-18T03:25:02.771Z,63.70
2023-04-18T03:26:02.768Z,64.96
2023-04-18T03:27:02.777Z,65.32
2023-04-18T03:28:02.752Z,61.62
2023-04-18T03:29:02.760Z,67.94
2023-04-18T03:30:02.736Z,64.62
2023-04-18T03:31:02.742Z,65.76
2023-04-18T03:32:02.769Z,65.86
2023-04-18T03:33:03.771Z,66.80
2023-04-18T03:34:02.700Z,69.16
2023-04-18T03:35:02.721Z,72.14
2023-04-18T03:36:02.691Z,69.05
2023-04-18T03:37:02.731Z,69.45
2023-04-18T03:38:02.692Z,66.80
2023-04-18T03:39:02.726Z,65.56
2023-04-18T03:40:02.672Z,65.20
2023-04-18T03:41:02.659Z,66.75
2023-04-18T03:42:02.668Z,68.41
2023-04-18T03:43:02.734Z,69.03
2023-04-18T03:44:02.744Z,69.60
2023-04-18T03:45:02.646Z,68.24
2023-04-18T03:46:02.671Z,67.47
2023-04-18T03:47:02.637Z,64.84
2023-04-18T03:48:02.665Z,71.24
2023-04-18T03:49:02.622Z,67.43
2023-04-18T03:50:02.615Z,59.55
2023-04-18T03:51:02.608Z,69.50
2023-04-18T03:52:02.592Z,66.35
2023-04-18T03:53:02.700Z,67.93
2023-04-18T03:54:02.613Z,66.50
2023-04-18T03:55:02.569Z,67.82
2023-04-18T03:56:02.573Z,68.47
2023-04-18T03:57:02.563Z,70.15
2023-04-18T03:58:02.587Z,71.05
2023-04-18T03:59:02.579Z,66.39
2023-04-18T04:00:02.632Z,65.72
2023-04-18T04:01:02.550Z,70.75
2023-04-18T04:02:02.608Z,70.01
2023-04-18T04:03:02.645Z,69.56
2023-04-18T04:04:02.647Z,66.98
2023-04-18T04:05:02.728Z,65.90
2023-04-18T04:06:02.518Z,73.25
2023-04-18T04:07:02.519Z,68.66
2023-04-18T04:08:02.540Z,67.60
2023-04-18T04:09:02.522Z,67.06
2023-04-18T04:10:02.496Z,69.97
2023-04-18T04:11:02.495Z,70.40
2023-04-18T04:12:02.510Z,71.70
2023-04-18T04:13:02.524Z,69.10
2023-04-18T04:14:02.490Z,69.96
2023-04-18T04:15:02.458Z,68.41
2023-04-18T04:16:02.498Z,68.71
2023-04-18T04:17:02.494Z,72.59
2023-04-18T04:18:02.556Z,70.09
2023-04-18T04:19:02.482Z,69.20
2023-04-18T04:20:02.485Z,68.41
2023-04-18T04:21:02.448Z,69.96
2023-04-18T04:22:02.424Z,68.06
2023-04-18T04:23:02.419Z,69.20
2023-04-18T04:24:02.468Z,69.80
2023-04-18T04:25:02.395Z,64.39
2023-04-18T04:26:02.432Z,66.22
2023-04-18T04:27:02.407Z,66.36
2023-04-18T04:28:02.430Z,69.16
2023-04-18T04:29:02.397Z,69.24
2023-04-18T04:30:02.362Z,69.50
2023-04-18T04:31:02.355Z,68.10
2023-04-18T04:32:02.481Z,74.50
2023-04-18T04:33:02.377Z,68.22
2023-04-18T04:34:02.380Z,69.69
2023-04-18T04:35:02.347Z,66.52
2023-04-18T04:36:02.306Z,70.86
2023-04-18T04:37:02.330Z,70.33
2023-04-18T04:38:02.370Z,73.48
2023-04-18T04:39:02.308Z,71.48
2023-04-18T04:40:02.302Z,71.39
2023-04-18T04:41:02.292Z,70.98
2023-04-18T04:42:02.393Z,69.20
2023-04-18T04:43:02.280Z,71.49
2023-04-18T04:44:02.273Z,69.02
2023-04-18T04:45:02.349Z,72.40
2023-04-18T04:46:02.356Z,72.06
2023-04-18T04:47:02.293Z,71.65
2023-04-18T04:48:02.306Z,69.55
2023-04-18T04:49:02.250Z,72.26
2023-04-18T04:50:02.252Z,71.40
2023-04-18T04:51:02.267Z,74.24
2023-04-18T04:52:02.303Z,73.08
2023-04-18T04:53:02.236Z,71.36
2023-04-18T04:54:02.253Z,70.87
2023-04-18T04:55:02.232Z,70.80
2023-04-18T04:56:02.249Z,69.52
2023-04-18T04:57:02.228Z,72.06
2023-04-18T04:58:02.248Z,68.43
2023-04-18T04:59:02.258Z,67.58
2023-04-18T05:00:02.189Z,70.42
2023-04-18T05:01:02.235Z,67.11
2023-04-18T05:02:02.315Z,72.15
2023-04-18T05:03:02.364Z,69.39
2023-04-18T05:04:02.369Z,67.46
2023-04-18T05:05:02.160Z,68.58
2023-04-18T05:06:02.163Z,71.85
2023-04-18T05:07:02.155Z,69.80
2023-04-18T05:08:02.185Z,66.59
2023-04-18T05:09:02.139Z,69.99
2023-04-18T05:10:02.134Z,66.73
2023-04-18T05:11:02.117Z,65.09
2023-04-18T05:12:02.167Z,73.58
2023-04-18T05:13:02.116Z,72.78
2023-04-18T05:14:02.143Z,70.68
2023-04-18T05:15:02.116Z,72.57
2023-04-18T05:16:02.096Z,70.67
2023-04-18T05:17:02.279Z,62.41
2023-04-18T05:18:02.184Z,73.92
2023-04-18T05:19:02.188Z,70.69
2023-04-18T05:20:02.173Z,71.62
2023-04-18T05:21:02.056Z,67.98
2023-04-18T05:22:02.081Z,72.01
2023-04-18T05:23:02.082Z,71.40
2023-04-18T05:24:02.046Z,65.42
2023-04-18T05:25:02.035Z,70.74
2023-04-18T05:26:02.065Z,66.99
2023-04-18T05:27:02.036Z,69.87
2023-04-18T05:28:02.019Z,71.11
2023-04-18T05:29:02.106Z,67.61
2023-04-18T05:30:02.033Z,67.39
2023-04-18T05:31:02.164Z,68.23
2023-04-18T05:32:02.028Z,69.49
2023-04-18T05:33:02.051Z,69.73
2023-04-18T05:34:02.062Z,71.12
2023-04-18T05:35:01.999Z,70.99
2023-04-18T05:36:02.003Z,69.28
2023-04-18T05:37:02.017Z,74.57
2023-04-18T05:38:02.008Z,72.19
2023-04-18T05:39:01.955Z,68.70
2023-04-18T05:40:01.972Z,70.30
2023-04-18T05:41:01.970Z,64.75
2023-04-18T05:42:01.970Z,71.30
2023-04-18T05:43:01.921Z,73.20
2023-04-18T05:44:05.408Z,71.55
2023-04-18T05:45:02.940Z,73.25
2023-04-18T05:46:01.994Z,71.83
2023-04-18T05:47:01.917Z,70.88
2023-04-18T05:48:02.038Z,71.67
2023-04-18T05:49:01.913Z,70.23
2023-04-18T05:50:02.011Z,67.59
2023-04-18T05:51:01.927Z,71.58
2023-04-18T05:52:01.954Z,69.09
2023-04-18T05:53:01.940Z,71.47
2023-04-18T05:54:01.916Z,71.09
2023-04-18T05:55:01.934Z,69.22
2023-04-18T05:56:01.881Z,67.31
2023-04-18T05:57:04.245Z,68.34
2023-04-18T05:58:01.868Z,68.05
2023-04-18T05:59:01.888Z,71.11
2023-04-18T06:00:02.063Z,71.41
2023-04-18T06:01:01.842Z,70.41
2023-04-18T06:02:01.849Z,72.91
2023-04-18T06:03:02.162Z,69.21
2023-04-18T06:04:01.964Z,70.19
2023-04-18T06:05:01.909Z,70.79
2023-04-18T06:06:02.118Z,67.99
2023-04-18T06:07:02.765Z,69.85
2023-04-18T06:08:01.761Z,64.86
2023-04-18T06:09:01.780Z,73.19
2023-04-18T06:10:01.883Z,70.11
2023-04-18T06:11:01.798Z,70.02
2023-04-18T06:12:01.758Z,73.86
2023-04-18T06:13:01.792Z,71.11
2023-04-18T06:14:01.743Z,70.43
2023-04-18T06:15:01.837Z,69.27
2023-04-18T06:16:01.828Z,72.25
2023-04-18T06:17:01.832Z,73.45
2023-04-18T06:18:01.788Z,67.76
2023-04-18T06:19:01.748Z,73.52
2023-04-18T06:20:01.707Z,69.00
2023-04-18T06:21:01.701Z,69.31
2023-04-18T06:22:01.701Z,69.86
2023-04-18T06:23:01.697Z,70.64
2023-04-18T06:24:01.737Z,69.60
2023-04-18T06:25:01.709Z,65.41
2023-04-18T06:26:01.667Z,68.97
2023-04-18T06:27:01.767Z,70.97
2023-04-18T06:28:01.710Z,72.81
2023-04-18T06:29:01.644Z,70.94
2023-04-18T06:30:01.645Z,70.50
2023-04-18T06:31:01.622Z,71.16
2023-04-18T06:32:01.729Z,75.29
2023-04-18T06:33:01.666Z,70.91
2023-04-18T06:34:01.659Z,71.18
2023-04-18T06:35:01.606Z,68.16
2023-04-18T06:36:01.618Z,73.14
2023-04-18T06:37:01.685Z,67.69
2023-04-18T06:38:01.628Z,68.64
2023-04-18T06:39:01.609Z,67.55
2023-04-18T06:40:01.603Z,70.03
2023-04-18T06:41:01.563Z,65.75
2023-04-18T06:42:01.573Z,71.51
2023-04-18T06:43:01.573Z,67.27
2023-04-18T06:44:03.568Z,71.19
2023-04-18T06:45:02.581Z,72.15
2023-04-18T06:46:01.685Z,69.99
2023-04-18T06:47:01.638Z,66.75
2023-04-18T06:48:01.567Z,69.17
2023-04-18T06:49:01.557Z,69.89
2023-04-18T06:50:01.530Z,68.15
2023-04-18T06:51:01.536Z,69.92
2023-04-18T06:52:01.559Z,67.07
2023-04-18T06:53:01.534Z,71.62
2023-04-18T06:54:01.544Z,69.34
2023-04-18T06:55:01.517Z,68.20
2023-04-18T06:56:01.547Z,71.65
2023-04-18T06:57:01.549Z,66.79
2023-04-18T06:58:01.553Z,72.07
2023-04-18T06:59:01.521Z,67.27
2023-04-18T07:00:01.516Z,69.89
2023-04-18T07:01:01.543Z,71.52
2023-04-18T07:02:01.454Z,67.45
2023-04-18T07:03:01.584Z,66.11
2023-04-18T07:04:01.545Z,70.68
2023-04-18T07:05:01.539Z,69.53
2023-04-18T07:06:01.465Z,67.81
2023-04-18T07:07:01.429Z,70.49
2023-04-18T07:08:01.428Z,67.51
2023-04-18T07:09:01.394Z,71.29
2023-04-18T07:10:02.510Z,70.29
2023-04-18T07:11:01.408Z,72.75
2023-04-18T07:12:01.389Z,71.02
2023-04-18T07:13:01.370Z,73.17
2023-04-18T07:14:01.471Z,72.47
2023-04-18T07:15:01.348Z,65.58
2023-04-18T07:16:01.372Z,65.47
2023-04-18T07:17:01.380Z,70.75
2023-04-18T07:18:01.432Z,70.67
2023-04-18T07:19:01.362Z,67.52
2023-04-18T07:20:01.394Z,71.55
2023-04-18T07:21:01.380Z,70.14
2023-04-18T07:22:01.331Z,69.41
2023-04-18T07:23:01.322Z,68.78
2023-04-18T07:24:01.807Z,68.06
2023-04-18T07:25:01.369Z,68.38
2023-04-18T07:26:01.302Z,68.82
2023-04-18T07:27:01.356Z,69.41
2023-04-18T07:28:01.319Z,71.90
2023-04-18T07:29:01.275Z,62.92
2023-04-18T07:30:01.294Z,68.74
2023-04-18T07:31:01.525Z,68.99
2023-04-18T07:32:01.272Z,70.70
2023-04-18T07:33:01.286Z,68.91
2023-04-18T07:34:01.344Z,70.87
2023-04-18T07:35:01.317Z,67.09
2023-04-18T07:36:01.318Z,69.24
2023-04-18T07:37:02.276Z,70.16
2023-04-18T07:38:01.237Z,69.75
2023-04-18T07:39:01.266Z,67.45
2023-04-18T07:40:01.232Z,68.59
2023-04-18T07:41:01.239Z,69.17
2023-04-18T07:42:01.330Z,72.01
2023-04-18T07:43:01.256Z,70.01
2023-04-18T07:44:01.302Z,69.62
2023-04-18T07:45:01.204Z,70.72
2023-04-18T07:46:01.269Z,66.54
2023-04-18T07:47:01.239Z,69.14
2023-04-18T07:48:01.197Z,70.17
2023-04-18T07:49:01.179Z,67.02
2023-04-18T07:50:01.184Z,68.00
2023-04-18T07:51:01.197Z,69.48
2023-04-18T07:52:01.258Z,71.43
2023-04-18T07:53:01.182Z,64.57
2023-04-18T07:54:01.174Z,74.39
2023-04-18T07:55:01.124Z,69.65
2023-04-18T07:56:01.126Z,73.09
2023-04-18T07:57:01.102Z,71.61
2023-04-18T07:58:01.256Z,68.72
2023-04-18T07:59:01.089Z,70.03
2023-04-18T08:00:01.101Z,67.55
2023-04-18T08:01:01.085Z,69.95
2023-04-18T08:02:01.133Z,70.62
2023-04-18T08:03:01.261Z,67.66
2023-04-18T08:04:01.161Z,72.31
2023-04-18T08:05:01.184Z,74.03
2023-04-18T08:06:01.079Z,71.33
2023-04-18T08:07:01.097Z,71.52
2023-04-18T08:08:01.029Z,71.60
2023-04-18T08:09:01.033Z,68.94
2023-04-18T08:10:01.055Z,71.25
2023-04-18T08:11:01.019Z,67.82
2023-04-18T08:12:01.029Z,62.61
2023-04-18T08:13:01.041Z,71.76
2023-04-18T08:14:01.028Z,71.50
2023-04-18T08:15:01.029Z,69.80
2023-04-18T08:16:01.039Z,72.40
2023-04-18T08:17:00.990Z,70.11
2023-04-18T08:18:01.059Z,68.35
2023-04-18T08:19:00.963Z,65.45
2023-04-18T08:20:00.994Z,68.35
2023-04-18T08:21:00.972Z,69.76
2023-04-18T08:22:00.944Z,69.61
2023-04-18T08:23:07.533Z,70.55
2023-04-18T08:24:02.944Z,72.13
2023-04-18T08:25:04.914Z,72.84
2023-04-18T08:26:01.972Z,69.98
2023-04-18T08:27:00.927Z,72.44
2023-04-18T08:28:00.929Z,69.60
2023-04-18T08:29:00.935Z,70.87
2023-04-18T08:30:00.959Z,70.98
2023-04-18T08:31:01.101Z,71.01
2023-04-18T08:32:00.982Z,70.10
2023-04-18T08:33:00.993Z,67.59
2023-04-18T08:34:02.152Z,73.40
2023-04-18T08:35:00.918Z,66.40
2023-04-18T08:36:00.922Z,69.75
2023-04-18T08:37:00.916Z,68.94
2023-04-18T08:38:00.874Z,67.51
2023-04-18T08:39:00.866Z,69.92
2023-04-18T08:40:00.850Z,67.63
2023-04-18T08:41:00.908Z,71.11
2023-04-18T08:42:00.840Z,67.77
2023-04-18T08:43:00.831Z,69.49
2023-04-18T08:44:01.012Z,69.24
2023-04-18T08:45:00.814Z,70.98
2023-04-18T08:46:00.953Z,68.26
2023-04-18T08:47:00.833Z,70.64
2023-04-18T08:48:00.816Z,70.54
2023-04-18T08:49:00.901Z,73.37
2023-04-18T08:50:00.890Z,68.80
2023-04-18T08:51:00.815Z,69.60
2023-04-18T08:52:00.757Z,65.82
2023-04-18T08:53:00.805Z,70.36
2023-04-18T08:54:00.737Z,68.53
2023-04-18T08:55:00.799Z,73.08
2023-04-18T08:56:00.739Z,65.51
2023-04-18T08:57:00.736Z,69.72
2023-04-18T08:58:00.715Z,67.08
2023-04-18T08:59:00.711Z,71.57
2023-04-18T09:00:00.752Z,69.91
2023-04-18T09:01:00.829Z,68.54
2023-04-18T09:02:00.994Z,67.17
2023-04-18T09:03:00.923Z,71.43
2023-04-18T09:04:00.765Z,70.58
2023-04-18T09:05:00.686Z,68.26
2023-04-18T09:06:00.703Z,72.27
2023-04-18T09:07:00.667Z,68.14
2023-04-18T09:08:00.691Z,69.91
2023-04-18T09:09:00.695Z,70.46
2023-04-18T09:10:00.689Z,69.27
2023-04-18T09:11:00.705Z,70.58
2023-04-18T09:12:00.642Z,70.63
2023-04-18T09:13:00.998Z,70.00
2023-04-18T09:14:00.611Z,71.20
2023-04-18T09:15:00.629Z,69.08
2023-04-18T09:16:00.640Z,66.97
2023-04-18T09:17:00.700Z,63.59
2023-04-18T09:18:00.669Z,71.66
2023-04-18T09:19:00.601Z,71.47
2023-04-18T09:20:00.670Z,72.84
2023-04-18T09:21:00.576Z,70.90
2023-04-18T09:22:00.594Z,69.53
2023-04-18T09:23:00.791Z,69.83
2023-04-18T09:24:00.568Z,70.07
2023-04-18T09:25:00.555Z,70.07
2023-04-18T09:26:00.538Z,71.27
2023-04-18T09:27:00.542Z,69.25
2023-04-18T09:28:06.833Z,69.25
2023-04-18T09:29:00.531Z,70.15
2023-04-18T09:30:00.531Z,72.13
2023-04-18T09:31:00.547Z,71.87
2023-04-18T09:32:00.496Z,71.61
2023-04-18T09:33:00.558Z,66.80
2023-04-18T09:34:00.723Z,71.41
2023-04-18T09:35:02.014Z,73.47
2023-04-18T09:36:00.524Z,71.46
2023-04-18T09:37:00.548Z,68.84
2023-04-18T09:38:00.526Z,70.54
2023-04-18T09:39:00.546Z,69.19
2023-04-18T09:40:00.460Z,69.02
2023-04-18T09:41:00.461Z,70.10
2023-04-18T09:42:00.454Z,70.05
2023-04-18T09:43:00.434Z,72.23
2023-04-18T09:44:00.440Z,72.58
2023-04-18T09:45:00.460Z,72.88
2023-04-18T09:46:00.553Z,70.46
2023-04-18T09:47:00.420Z,72.24
2023-04-18T09:48:00.462Z,67.06
2023-04-18T09:49:00.390Z,71.06
2023-04-18T09:50:00.404Z,62.84
2023-04-18T09:51:00.408Z,69.98
2023-04-18T09:52:02.271Z,70.38
2023-04-18T09:53:00.381Z,71.96
2023-04-18T09:54:01.360Z,69.74
2023-04-18T09:55:01.206Z,68.55
2023-04-18T09:56:00.483Z,67.89
2023-04-18T09:57:00.363Z,71.01
2023-04-18T09:58:00.387Z,69.64
2023-04-18T09:59:00.348Z,73.38
2023-04-18T10:00:00.366Z,72.66
2023-04-18T10:01:01.167Z,64.13
2023-04-18T10:02:00.367Z,69.87
2023-04-18T10:03:00.437Z,70.33
2023-04-18T10:04:01.373Z,69.96
2023-04-18T10:05:00.438Z,72.41
2023-04-18T10:06:00.307Z,72.11
2023-04-18T10:07:00.297Z,68.37
2023-04-18T10:08:00.283Z,74.34
2023-04-18T10:09:00.293Z,72.75
2023-04-18T10:10:00.295Z,68.91
2023-04-18T10:11:00.242Z,71.80
2023-04-18T10:12:00.246Z,70.31
2023-04-18T10:13:00.256Z,69.37
2023-04-18T10:14:00.215Z,72.84
2023-04-18T10:15:00.312Z,71.15
2023-04-18T10:16:00.287Z,72.55
2023-04-18T10:17:00.224Z,74.36
2023-04-18T10:18:05.266Z,72.65
2023-04-18T10:19:02.199Z,71.07
2023-04-18T10:20:00.193Z,69.27
2023-04-18T10:21:00.246Z,69.97
2023-04-18T10:22:00.212Z,69.52
2023-04-18T10:23:00.163Z,71.21
2023-04-18T10:24:00.211Z,68.26
2023-04-18T10:25:00.235Z,64.29
2023-04-18T10:26:00.192Z,70.80
2023-04-18T10:27:00.164Z,74.41
2023-04-18T10:28:00.167Z,73.08
2023-04-18T10:29:00.529Z,74.02
2023-04-18T10:30:00.157Z,70.07
2023-04-18T10:31:00.208Z,66.57
2023-04-18T10:32:00.198Z,69.98
2023-04-18T10:33:00.192Z,68.40
2023-04-18T10:34:05.291Z,65.76
2023-04-18T10:35:02.766Z,70.52
2023-04-18T10:36:00.175Z,70.87
2023-04-18T10:37:00.157Z,71.20
2023-04-18T10:38:00.125Z,72.03
2023-04-18T10:39:00.101Z,72.17
2023-04-18T10:40:00.117Z,69.92
2023-04-18T10:41:00.088Z,70.49
2023-04-18T10:42:00.128Z,70.35
2023-04-18T10:43:00.057Z,72.37
2023-04-18T10:44:00.039Z,71.72
2023-04-18T10:45:00.062Z,69.32
2023-04-18T10:46:00.040Z,71.05
2023-04-18T10:47:00.082Z,69.52
2023-04-18T10:48:00.036Z,71.30
2023-04-18T10:49:00.940Z,72.45
2023-04-18T10:49:59.998Z,71.33
2023-04-18T10:51:00.000Z,68.32
2023-04-18T10:51:59.977Z,72.34
2023-04-18T10:52:59.990Z,72.22
2023-04-18T10:53:59.942Z,71.09
2023-04-18T10:54:59.966Z,74.07
2023-04-18T10:55:59.955Z,72.16
2023-04-18T10:57:00.015Z,69.96
2023-04-18T10:57:59.942Z,72.55
2023-04-18T10:58:59.932Z,71.83
2023-04-18T10:59:59.916Z,68.83
2023-04-18T11:00:59.992Z,67.34
2023-04-18T11:02:00.026Z,70.10
2023-04-18T11:03:00.152Z,72.40
2023-04-18T11:04:00.185Z,69.73
2023-04-18T11:04:59.979Z,72.70
2023-04-18T11:05:59.892Z,68.93
2023-04-18T11:06:59.876Z,64.41
2023-04-18T11:07:59.916Z,73.89
2023-04-18T11:08:59.937Z,71.93
2023-04-18T11:09:59.900Z,72.60
2023-04-18T11:10:59.847Z,72.67
2023-04-18T11:11:59.843Z,71.04
2023-04-18T11:12:59.849Z,68.28
2023-04-18T11:13:59.829Z,69.71
2023-04-18T11:14:59.888Z,72.98
2023-04-18T11:15:59.830Z,76.13
2023-04-18T11:16:59.946Z,71.00
2023-04-18T11:17:59.849Z,70.53
2023-04-18T11:18:59.806Z,66.51
2023-04-18T11:19:59.810Z,71.67
2023-04-18T11:20:59.790Z,71.93
2023-04-18T11:21:59.846Z,68.23
2023-04-18T11:22:59.803Z,73.37
2023-04-18T11:23:59.789Z,64.70
2023-04-18T11:24:59.880Z,69.13
2023-04-18T11:25:59.772Z,67.79
2023-04-18T11:26:59.752Z,73.38
2023-04-18T11:27:59.739Z,71.95
2023-04-18T11:28:59.770Z,71.16
2023-04-18T11:29:59.775Z,69.39
2023-04-18T11:30:59.807Z,73.08
2023-04-18T11:31:59.796Z,69.01
2023-04-18T11:32:59.748Z,70.91
2023-04-18T11:33:59.711Z,69.62
2023-04-18T11:34:59.757Z,70.33
2023-04-18T11:36:00.708Z,71.73
2023-04-18T11:36:59.667Z,76.24
2023-04-18T11:37:59.702Z,72.60
2023-04-18T11:38:59.783Z,73.38
2023-04-18T11:39:59.728Z,71.37
2023-04-18T11:40:59.680Z,71.89
2023-04-18T11:41:59.732Z,68.13
2023-04-18T11:42:59.665Z,68.87
2023-04-18T11:43:59.711Z,71.50
2023-04-18T11:44:59.640Z,75.26
2023-04-18T11:45:59.839Z,72.00
2023-04-18T11:46:59.611Z,69.55
2023-04-18T11:47:59.662Z,71.02
2023-04-18T11:48:59.602Z,70.14
2023-04-18T11:49:59.659Z,72.18
2023-04-18T11:50:59.587Z,73.42
2023-04-18T11:51:59.570Z,70.79
2023-04-18T11:53:00.180Z,74.72
2023-04-18T11:53:59.556Z,71.77
2023-04-18T11:54:59.566Z,68.77
2023-04-18T11:55:59.577Z,70.86
2023-04-18T11:56:59.536Z,70.75
2023-04-18T11:57:59.526Z,74.23
2023-04-18T11:58:59.530Z,74.12
2023-04-18T11:59:59.506Z,72.81
2023-04-18T12:00:59.543Z,69.36
2023-04-18T12:01:59.565Z,73.88
2023-04-18T12:02:59.778Z,69.83
2023-04-18T12:03:59.756Z,72.91
2023-04-18T12:04:59.900Z,69.62
2023-04-18T12:05:59.716Z,71.74
2023-04-18T12:06:59.512Z,72.94
2023-04-18T12:07:59.482Z,70.44
2023-04-18T12:08:59.510Z,70.64
2023-04-18T12:09:59.523Z,71.23
2023-04-18T12:10:59.550Z,70.45
2023-04-18T12:11:59.633Z,74.15
2023-04-18T12:12:59.586Z,70.69
2023-04-18T12:13:59.691Z,72.18
2023-04-18T12:14:59.560Z,72.58
2023-04-18T12:15:59.493Z,72.27
2023-04-18T12:16:59.395Z,71.11
2023-04-18T12:17:59.488Z,71.03
2023-04-18T12:18:59.442Z,68.39
2023-04-18T12:19:59.386Z,71.12
2023-04-18T12:20:59.408Z,73.00
2023-04-18T12:21:59.377Z,73.02
2023-04-18T12:22:59.441Z,69.09
2023-04-18T12:23:59.362Z,67.13
2023-04-18T12:25:00.132Z,71.04
2023-04-18T12:25:59.370Z,70.43
2023-04-18T12:26:59.365Z,69.53
2023-04-18T12:27:59.341Z,67.98
2023-04-18T12:28:59.332Z,73.83
2023-04-18T12:29:59.387Z,74.42
2023-04-18T12:30:59.435Z,75.44
2023-04-18T12:31:59.390Z,72.60
2023-04-18T12:32:59.453Z,71.08
2023-04-18T12:33:59.330Z,68.08
2023-04-18T12:34:59.383Z,72.25
2023-04-18T12:35:59.297Z,77.09
2023-04-18T12:36:59.317Z,73.85
2023-04-18T12:37:59.315Z,73.45
2023-04-18T12:38:59.240Z,71.44
2023-04-18T12:39:59.242Z,74.97
2023-04-18T12:40:59.237Z,69.43
2023-04-18T12:41:59.259Z,72.19
2023-04-18T12:43:00.581Z,69.83
2023-04-18T12:43:59.231Z,71.18
2023-04-18T12:44:59.339Z,69.69
2023-04-18T12:45:59.381Z,74.97
2023-04-18T12:46:59.240Z,71.43
2023-04-18T12:47:59.248Z,73.52
2023-04-18T12:48:59.283Z,71.09
2023-04-18T12:49:59.210Z,69.28
2023-04-18T12:50:59.212Z,73.61
2023-04-18T12:51:59.170Z,70.31